createdAt,value
2023-07-21T00:00:42.243Z,85.21
2023-07-21T00:01:42.240Z,85.21
2023-07-21T00:02:42.281Z,85.11
2023-07-21T00:03:42.243Z,85.11
2023-07-21T00:04:42.190Z,85.11
2023-07-21T00:05:42.197Z,84.94
2023-07-21T00:06:42.197Z,85.75
2023-07-21T00:07:42.179Z,85.25
2023-07-21T00:08:42.170Z,85.45
2023-07-21T00:09:42.157Z,85.35
2023-07-21T00:10:42.150Z,85.66
2023-07-21T00:11:42.152Z,85.45
2023-07-21T00:12:42.140Z,85.75
2023-07-21T00:13:42.144Z,86.21
2023-07-21T00:14:42.121Z,86.06
2023-07-21T00:15:43.151Z,85.96
2023-07-21T00:16:42.099Z,85.96
2023-07-21T00:17:42.138Z,86.10
2023-07-21T00:19:30.972Z,85.96
2023-07-21T00:20:30.955Z,86.10
2023-07-21T00:21:30.959Z,86.00
2023-07-21T00:22:31.012Z,86.21
2023-07-21T00:23:30.918Z,86.00
2023-07-21T00:24:31.045Z,86.21
2023-07-21T00:25:30.906Z,86.10
2023-07-21T00:26:30.894Z,86.51
2023-07-21T00:27:30.909Z,86.51
2023-07-21T00:28:31.975Z,86.51
2023-07-21T00:29:31.972Z,86.92
2023-07-21T00:30:32.885Z,87.02
2023-07-21T00:31:31.994Z,87.43
2023-07-21T00:32:31.993Z,87.02
2023-07-21T00:33:31.991Z,87.12
2023-07-21T00:34:31.923Z,86.82
2023-07-21T00:35:31.957Z,86.82
2023-07-21T00:36:31.917Z,86.71
2023-07-21T00:37:31.906Z,86.61
2023-07-21T00:38:31.911Z,86.71
2023-07-21T00:39:31.889Z,86.61
2023-07-21T00:40:31.902Z,86.41
2023-07-21T00:41:31.892Z,86.21
2023-07-21T00:42:31.895Z,86.10
2023-07-21T00:43:31.857Z,86.00
2023-07-21T00:44:31.870Z,85.90
2023-07-21T00:45:31.859Z,86.27
2023-07-21T00:46:31.896Z,85.66
2023-07-21T00:47:31.863Z,85.96
2023-07-21T00:48:31.818Z,85.86
2023-07-21T00:49:32.811Z,85.86
2023-07-21T00:50:31.803Z,85.66
2023-07-21T00:51:31.811Z,85.45
2023-07-21T00:52:31.803Z,85.35
2023-07-21T00:53:31.794Z,85.25
2023-07-21T00:54:31.781Z,85.45
2023-07-21T00:55:31.753Z,85.25
2023-07-21T00:56:31.761Z,85.35
2023-07-21T00:57:31.739Z,85.45
2023-07-21T00:58:31.738Z,85.45
2023-07-21T00:59:31.752Z,85.25
2023-07-21T01:00:31.715Z,85.66
2023-07-21T01:01:32.464Z,85.66
2023-07-21T01:02:33.969Z,85.66
2023-07-21T01:03:32.715Z,85.45
2023-07-21T01:04:31.683Z,85.45
2023-07-21T01:05:31.683Z,85.05
2023-07-21T01:06:31.688Z,84.64
2023-07-21T01:07:31.683Z,85.35
2023-07-21T01:08:31.659Z,85.75
2023-07-21T01:09:31.643Z,85.86
2023-07-21T01:10:32.655Z,86.06
2023-07-21T01:11:31.664Z,85.55
2023-07-21T01:12:31.630Z,85.45
2023-07-21T01:13:31.612Z,85.35
2023-07-21T01:14:31.613Z,84.94
2023-07-21T01:15:31.618Z,84.53
2023-07-21T01:16:31.619Z,84.74
2023-07-21T01:17:31.649Z,85.05
2023-07-21T01:18:31.570Z,84.94
2023-07-21T01:19:31.570Z,84.64
2023-07-21T01:20:32.400Z,85.96
2023-07-21T01:21:31.561Z,84.88
2023-07-21T01:22:31.552Z,85.49
2023-07-21T01:23:31.528Z,85.60
2023-07-21T01:24:31.600Z,85.49
2023-07-21T01:25:31.531Z,85.60
2023-07-21T01:26:31.508Z,85.49
2023-07-21T01:27:31.498Z,85.94
2023-07-21T01:28:31.489Z,85.94
2023-07-21T01:29:31.506Z,86.04
2023-07-21T01:30:31.485Z,86.04
2023-07-21T01:31:31.490Z,86.65
2023-07-21T01:32:31.523Z,87.00
2023-07-21T01:33:31.501Z,87.30
2023-07-21T01:34:31.448Z,87.51
2023-07-21T01:35:31.451Z,87.76
2023-07-21T01:36:31.429Z,87.65
2023-07-21T01:37:32.426Z,87.55
2023-07-21T01:38:31.428Z,87.76
2023-07-21T01:39:32.342Z,88.17
2023-07-21T01:40:31.394Z,87.65
2023-07-21T01:41:32.926Z,88.06
2023-07-21T01:42:31.387Z,88.26
2023-07-21T01:43:31.422Z,87.85
2023-07-21T01:44:32.378Z,88.26
2023-07-21T01:45:31.359Z,88.06
2023-07-21T01:46:31.446Z,88.17
2023-07-21T01:47:31.353Z,87.96
2023-07-21T01:48:31.342Z,88.26
2023-07-21T01:49:31.338Z,88.06
2023-07-21T01:50:31.342Z,88.17
2023-07-21T01:51:31.311Z,87.85
2023-07-21T01:52:31.313Z,87.76
2023-07-21T01:53:31.302Z,88.06
2023-07-21T01:54:31.305Z,87.65
2023-07-21T01:55:31.300Z,88.06
2023-07-21T01:56:31.276Z,88.37
2023-07-21T01:57:31.270Z,87.96
2023-07-21T01:58:31.255Z,88.17
2023-07-21T01:59:31.257Z,88.26
2023-07-21T02:00:38.011Z,88.26
2023-07-21T02:01:33.254Z,88.06
2023-07-21T02:02:31.295Z,88.17
2023-07-21T02:03:31.350Z,87.96
2023-07-21T02:04:31.226Z,88.06
2023-07-21T02:05:31.202Z,88.12
2023-07-21T02:06:31.216Z,87.82
2023-07-21T02:07:31.192Z,87.92
2023-07-21T02:08:31.175Z,87.71
2023-07-21T02:09:31.189Z,87.65
2023-07-21T02:10:31.178Z,87.45
2023-07-21T02:11:31.161Z,87.76
2023-07-21T02:12:31.149Z,87.76
2023-07-21T02:13:31.144Z,87.71
2023-07-21T02:14:31.853Z,87.61
2023-07-21T02:15:31.139Z,87.61
2023-07-21T02:16:31.135Z,87.41
2023-07-21T02:17:31.149Z,87.71
2023-07-21T02:18:31.105Z,87.30
2023-07-21T02:19:31.101Z,87.71
2023-07-21T02:20:31.092Z,87.51
2023-07-21T02:21:31.089Z,87.30
2023-07-21T02:22:31.071Z,87.51
2023-07-21T02:23:31.070Z,87.30
2023-07-21T02:24:31.110Z,87.71
2023-07-21T02:25:31.064Z,87.71
2023-07-21T02:26:31.044Z,87.61
2023-07-21T02:27:31.033Z,87.71
2023-07-21T02:28:31.027Z,87.41
2023-07-21T02:29:31.016Z,87.30
2023-07-21T02:30:31.002Z,87.61
2023-07-21T02:31:31.045Z,87.61
2023-07-21T02:32:31.033Z,86.86
2023-07-21T02:33:30.982Z,86.55
2023-07-21T02:34:30.996Z,86.49
2023-07-21T02:35:30.984Z,86.29
2023-07-21T02:36:30.960Z,86.35
2023-07-21T02:37:30.960Z,86.59
2023-07-21T02:38:30.970Z,86.55
2023-07-21T02:39:30.951Z,86.24
2023-07-21T02:40:30.930Z,86.24
2023-07-21T02:41:30.924Z,86.15
2023-07-21T02:42:30.918Z,85.94
2023-07-21T02:43:30.911Z,86.04
2023-07-21T02:44:30.915Z,86.04
2023-07-21T02:45:30.909Z,85.84
2023-07-21T02:46:30.929Z,86.15
2023-07-21T02:47:31.478Z,86.35
2023-07-21T02:48:30.857Z,86.15
2023-07-21T02:49:30.854Z,86.35
2023-07-21T02:50:30.873Z,85.84
2023-07-21T02:51:30.881Z,85.90
2023-07-21T02:52:30.862Z,85.94
2023-07-21T02:53:30.823Z,85.80
2023-07-21T02:54:31.828Z,85.80
2023-07-21T02:55:30.821Z,85.69
2023-07-21T02:56:30.817Z,85.80
2023-07-21T02:57:30.791Z,85.80
2023-07-21T02:58:30.790Z,85.35
2023-07-21T02:59:30.767Z,84.94
2023-07-21T03:00:30.770Z,84.43
2023-07-21T03:01:30.781Z,84.84
2023-07-21T03:02:30.800Z,85.75
2023-07-21T03:03:30.819Z,84.94
2023-07-21T03:04:30.729Z,85.14
2023-07-21T03:05:30.736Z,85.25
2023-07-21T03:06:31.449Z,85.35
2023-07-21T03:07:30.719Z,85.00
2023-07-21T03:08:30.725Z,84.50
2023-07-21T03:09:30.703Z,84.74
2023-07-21T03:10:30.719Z,85.05
2023-07-21T03:11:30.689Z,84.39
2023-07-21T03:12:30.674Z,84.39
2023-07-21T03:13:30.678Z,84.09
2023-07-21T03:14:30.666Z,84.09
2023-07-21T03:15:30.684Z,83.98
2023-07-21T03:16:30.701Z,83.84
2023-07-21T03:17:30.656Z,83.95
2023-07-21T03:18:31.434Z,84.05
2023-07-21T03:19:30.624Z,84.19
2023-07-21T03:20:30.620Z,83.62
2023-07-21T03:21:30.626Z,84.23
2023-07-21T03:22:30.609Z,85.14
2023-07-21T03:23:30.588Z,85.14
2023-07-21T03:24:30.600Z,85.08
2023-07-21T03:25:30.572Z,85.05
2023-07-21T03:26:30.601Z,85.28
2023-07-21T03:27:30.568Z,85.28
2023-07-21T03:28:30.545Z,85.94
2023-07-21T03:29:30.546Z,85.80
2023-07-21T03:30:30.541Z,85.53
2023-07-21T03:31:30.572Z,85.84
2023-07-21T03:32:30.555Z,86.24
2023-07-21T03:33:30.523Z,86.04
2023-07-21T03:34:30.506Z,85.80
2023-07-21T03:35:30.514Z,85.90
2023-07-21T03:36:30.490Z,85.80
2023-07-21T03:37:30.500Z,85.80
2023-07-21T03:38:30.462Z,85.80
2023-07-21T03:39:30.456Z,85.69
2023-07-21T03:40:30.456Z,85.90
2023-07-21T03:41:30.451Z,86.51
2023-07-21T03:42:30.459Z,86.47
2023-07-21T03:43:30.431Z,86.41
2023-07-21T03:44:30.434Z,86.77
2023-07-21T03:45:30.450Z,87.59
2023-07-21T03:46:30.538Z,87.38
2023-07-21T03:47:30.486Z,87.38
2023-07-21T03:48:30.391Z,88.04
2023-07-21T03:49:30.389Z,87.49
2023-07-21T03:50:30.370Z,87.38
2023-07-21T03:51:30.383Z,87.38
2023-07-21T03:52:30.437Z,87.38
2023-07-21T03:53:36.508Z,87.49
2023-07-21T03:54:32.341Z,88.45
2023-07-21T03:55:30.331Z,88.10
2023-07-21T03:56:30.334Z,87.90
2023-07-21T03:57:30.316Z,88.20
2023-07-21T03:58:30.329Z,89.22
2023-07-21T03:59:30.315Z,89.12
2023-07-21T04:00:30.311Z,89.42
2023-07-21T04:01:30.328Z,89.83
2023-07-21T04:02:30.277Z,89.97
2023-07-21T04:03:30.377Z,90.28
2023-07-21T04:04:30.420Z,90.38
2023-07-21T04:05:31.756Z,90.59
2023-07-21T04:06:30.260Z,90.59
2023-07-21T04:07:30.238Z,90.28
2023-07-21T04:08:30.237Z,90.18
2023-07-21T04:09:30.238Z,90.99
2023-07-21T04:10:30.230Z,90.38
2023-07-21T04:11:30.218Z,89.57
2023-07-21T04:12:30.199Z,88.85
2023-07-21T04:13:30.230Z,89.51
2023-07-21T04:14:30.201Z,90.94
2023-07-21T04:15:30.193Z,90.59
2023-07-21T04:16:30.299Z,90.59
2023-07-21T04:17:30.182Z,91.03
2023-07-21T04:18:30.161Z,91.35
2023-07-21T04:19:30.146Z,91.61
2023-07-21T04:20:30.185Z,91.61
2023-07-21T04:21:30.142Z,91.81
2023-07-21T04:22:30.142Z,91.85
2023-07-21T04:23:30.138Z,92.01
2023-07-21T04:24:30.184Z,91.91
2023-07-21T04:25:30.119Z,91.91
2023-07-21T04:26:30.113Z,91.50
2023-07-21T04:27:30.119Z,91.81
2023-07-21T04:28:30.096Z,91.97
2023-07-21T04:29:36.289Z,91.66
2023-07-21T04:30:32.071Z,91.26
2023-07-21T04:31:31.345Z,91.05
2023-07-21T04:32:30.096Z,91.66
2023-07-21T04:33:30.060Z,91.66
2023-07-21T04:34:30.033Z,91.56
2023-07-21T04:35:30.034Z,91.97
2023-07-21T04:36:30.030Z,92.58
2023-07-21T04:37:30.023Z,92.38
2023-07-21T04:38:30.012Z,93.15
2023-07-21T04:39:30.020Z,92.48
2023-07-21T04:40:29.995Z,92.68
2023-07-21T04:41:29.976Z,92.13
2023-07-21T04:42:29.991Z,92.23
2023-07-21T04:43:29.956Z,92.44
2023-07-21T04:44:29.944Z,92.74
2023-07-21T04:45:29.958Z,92.44
2023-07-21T04:46:29.958Z,92.03
2023-07-21T04:47:29.959Z,92.33
2023-07-21T04:48:29.921Z,91.77
2023-07-21T04:49:29.926Z,91.87
2023-07-21T04:50:29.917Z,91.66
2023-07-21T04:51:30.450Z,91.87
2023-07-21T04:52:29.892Z,92.58
2023-07-21T04:53:29.907Z,93.29
2023-07-21T04:54:30.371Z,92.79
2023-07-21T04:55:29.884Z,92.99
2023-07-21T04:56:29.869Z,92.68
2023-07-21T04:57:29.869Z,92.27
2023-07-21T04:58:29.858Z,92.18
2023-07-21T04:59:29.842Z,92.58
2023-07-21T05:00:29.840Z,92.58
2023-07-21T05:01:29.873Z,92.99
2023-07-21T05:02:29.891Z,92.27
2023-07-21T05:03:29.865Z,92.79
2023-07-21T05:04:29.815Z,92.07
2023-07-21T05:05:29.793Z,92.27
2023-07-21T05:06:29.793Z,92.84
2023-07-21T05:07:29.784Z,93.19
2023-07-21T05:08:29.773Z,92.79
2023-07-21T05:09:29.777Z,92.64
2023-07-21T05:10:29.776Z,93.55
2023-07-21T05:11:29.757Z,92.64
2023-07-21T05:12:29.751Z,92.18
2023-07-21T05:13:30.926Z,92.13
2023-07-21T05:14:30.719Z,94.17
2023-07-21T05:15:29.713Z,92.74
2023-07-21T05:16:29.732Z,92.79
2023-07-21T05:17:29.755Z,92.54
2023-07-21T05:18:29.707Z,92.23
2023-07-21T05:19:29.670Z,92.33
2023-07-21T05:20:31.231Z,92.64
2023-07-21T05:21:30.674Z,93.76
2023-07-21T05:22:29.647Z,92.84
2023-07-21T05:23:29.650Z,93.76
2023-07-21T05:24:29.673Z,94.17
2023-07-21T05:25:29.619Z,92.54
2023-07-21T05:26:29.641Z,92.03
2023-07-21T05:27:29.612Z,92.18
2023-07-21T05:28:29.615Z,94.11
2023-07-21T05:29:29.592Z,93.19
2023-07-21T05:30:29.593Z,92.79
2023-07-21T05:31:29.661Z,93.24
2023-07-21T05:32:29.595Z,93.70
2023-07-21T05:33:29.567Z,93.70
2023-07-21T05:34:29.564Z,93.54
2023-07-21T05:35:29.547Z,94.01
2023-07-21T05:36:29.538Z,93.80
2023-07-21T05:37:30.402Z,93.70
2023-07-21T05:38:29.513Z,93.60
2023-07-21T05:39:29.549Z,94.42
2023-07-21T05:40:29.513Z,94.62
2023-07-21T05:41:29.495Z,94.21
2023-07-21T05:42:29.492Z,93.60
2023-07-21T05:43:29.500Z,93.80
2023-07-21T05:44:30.456Z,93.80
2023-07-21T05:45:30.550Z,94.42
2023-07-21T05:46:29.658Z,94.42
2023-07-21T05:47:29.517Z,94.42
2023-07-21T05:48:29.450Z,94.52
2023-07-21T05:49:29.450Z,94.57
2023-07-21T05:50:29.443Z,95.33
2023-07-21T05:51:29.420Z,95.49
2023-07-21T05:52:29.427Z,94.57
2023-07-21T05:53:29.418Z,94.88
2023-07-21T05:54:29.535Z,93.66
2023-07-21T05:55:29.411Z,93.96
2023-07-21T05:56:29.389Z,94.37
2023-07-21T05:57:29.391Z,94.27
2023-07-21T05:58:29.371Z,94.37
2023-07-21T05:59:29.391Z,94.57
2023-07-21T06:00:29.413Z,94.07
2023-07-21T06:01:29.349Z,94.72
2023-07-21T06:02:29.413Z,95.49
2023-07-21T06:03:29.539Z,95.39
2023-07-21T06:04:29.333Z,95.08
2023-07-21T06:05:29.314Z,94.37
2023-07-21T06:06:29.312Z,94.68
2023-07-21T06:07:29.299Z,95.39
2023-07-21T06:08:29.301Z,94.78
2023-07-21T06:09:29.298Z,93.86
2023-07-21T06:10:29.329Z,94.07
2023-07-21T06:11:29.260Z,94.11
2023-07-21T06:12:29.290Z,94.31
2023-07-21T06:13:29.252Z,94.42
2023-07-21T06:14:29.270Z,93.90
2023-07-21T06:15:29.238Z,95.74
2023-07-21T06:16:29.488Z,94.52
2023-07-21T06:17:29.309Z,94.72
2023-07-21T06:18:29.261Z,95.64
2023-07-21T06:19:29.285Z,94.98
2023-07-21T06:20:29.279Z,95.53
2023-07-21T06:21:29.617Z,94.42
2023-07-21T06:22:29.194Z,94.31
2023-07-21T06:23:29.188Z,95.13
2023-07-21T06:24:29.258Z,93.86
2023-07-21T06:25:29.158Z,94.21
2023-07-21T06:26:29.366Z,94.68
2023-07-21T06:27:29.143Z,94.47
2023-07-21T06:28:29.123Z,94.17
2023-07-21T06:29:29.140Z,93.92
2023-07-21T06:30:29.224Z,93.62
2023-07-21T06:31:29.390Z,93.77
2023-07-21T06:32:30.844Z,93.47
2023-07-21T06:33:30.095Z,93.77
2023-07-21T06:34:29.100Z,92.41
2023-07-21T06:35:29.106Z,92.30
2023-07-21T06:36:29.092Z,92.16
2023-07-21T06:37:29.075Z,91.82
2023-07-21T06:38:29.070Z,91.20
2023-07-21T06:39:29.040Z,91.36
2023-07-21T06:40:29.030Z,90.61
2023-07-21T06:41:29.206Z,89.96
2023-07-21T06:42:29.030Z,89.65
2023-07-21T06:43:29.027Z,89.51
2023-07-21T06:44:29.035Z,89.17
2023-07-21T06:45:29.010Z,88.56
2023-07-21T06:46:28.999Z,87.74
2023-07-21T06:47:29.081Z,87.10
2023-07-21T06:48:28.988Z,85.99
2023-07-21T06:49:28.975Z,85.88
2023-07-21T06:50:28.986Z,85.54
2023-07-21T06:51:28.955Z,85.58
2023-07-21T06:52:28.954Z,86.15
2023-07-21T06:53:28.959Z,86.05
2023-07-21T06:54:28.940Z,87.05
2023-07-21T06:55:28.940Z,85.80
2023-07-21T06:56:28.946Z,84.14
2023-07-21T06:57:28.920Z,84.28
2023-07-21T06:58:28.897Z,85.50
2023-07-21T07:00:01.965Z,84.83
2023-07-21T07:00:28.923Z,85.03
2023-07-21T07:01:29.114Z,85.13
2023-07-21T07:02:29.015Z,85.54
2023-07-21T07:03:28.905Z,86.00
2023-07-21T07:04:28.875Z,86.71
2023-07-21T07:05:28.861Z,87.22
2023-07-21T07:06:28.902Z,86.00
2023-07-21T07:07:28.836Z,85.39
2023-07-21T07:08:28.890Z,84.85
2023-07-21T07:09:28.839Z,85.25
2023-07-21T07:10:28.834Z,84.75
2023-07-21T07:11:29.126Z,83.94
2023-07-21T07:12:28.822Z,83.80
2023-07-21T07:13:30.554Z,84.20
2023-07-21T07:14:28.822Z,84.31
2023-07-21T07:15:28.794Z,83.86
2023-07-21T07:16:29.525Z,83.66
2023-07-21T07:17:29.517Z,83.26
2023-07-21T07:18:30.425Z,82.85
2023-07-21T07:19:28.749Z,83.05
2023-07-21T07:20:28.753Z,81.94
2023-07-21T07:21:28.721Z,82.24
2023-07-21T07:22:28.725Z,82.85
2023-07-21T07:23:28.712Z,83.15
2023-07-21T07:24:28.736Z,82.85
2023-07-21T07:25:28.714Z,82.14
2023-07-21T07:26:28.710Z,82.39
2023-07-21T07:27:28.701Z,82.99
2023-07-21T07:28:28.666Z,83.50
2023-07-21T07:29:28.681Z,83.50
2023-07-21T07:30:35.441Z,84.00
2023-07-21T07:31:29.607Z,83.40
2023-07-21T07:32:28.697Z,83.40
2023-07-21T07:33:28.627Z,84.25
2023-07-21T07:34:28.704Z,84.34
2023-07-21T07:35:28.620Z,84.14
2023-07-21T07:36:28.616Z,83.74
2023-07-21T07:37:28.597Z,84.65
2023-07-21T07:38:28.591Z,84.99
2023-07-21T07:39:28.591Z,84.85
2023-07-21T07:40:28.557Z,85.25
2023-07-21T07:41:28.720Z,85.05
2023-07-21T07:42:28.594Z,85.36
2023-07-21T07:43:28.557Z,85.56
2023-07-21T07:44:28.548Z,85.31
2023-07-21T07:45:28.540Z,85.46
2023-07-21T07:46:28.537Z,84.65
2023-07-21T07:47:28.576Z,84.71
2023-07-21T07:48:28.520Z,84.75
2023-07-21T07:49:28.506Z,84.65
2023-07-21T07:50:28.478Z,85.05
2023-07-21T07:51:28.589Z,85.16
2023-07-21T07:52:28.489Z,84.61
2023-07-21T07:53:29.992Z,84.81
2023-07-21T07:54:28.464Z,84.20
2023-07-21T07:55:28.790Z,84.67
2023-07-21T07:56:31.032Z,84.67
2023-07-21T07:57:28.432Z,84.12
2023-07-21T07:58:28.483Z,84.47
2023-07-21T07:59:28.966Z,84.43
2023-07-21T08:00:28.415Z,84.43
2023-07-21T08:01:28.816Z,84.49
2023-07-21T08:02:28.421Z,83.48
2023-07-21T08:03:28.498Z,83.52
2023-07-21T08:04:28.435Z,84.03
2023-07-21T08:05:28.356Z,82.78
2023-07-21T08:06:30.548Z,82.78
2023-07-21T08:07:28.351Z,82.98
2023-07-21T08:08:28.345Z,83.28
2023-07-21T08:09:28.329Z,83.34
2023-07-21T08:10:28.329Z,82.39
2023-07-21T08:11:29.056Z,81.28
2023-07-21T08:12:28.312Z,81.08
2023-07-21T08:13:28.290Z,80.58
2023-07-21T08:14:28.317Z,81.28
2023-07-21T08:15:28.306Z,81.15
2023-07-21T08:16:28.424Z,80.54
2023-07-21T08:17:29.280Z,80.64
2023-07-21T08:18:28.291Z,80.64
2023-07-21T08:19:28.257Z,80.94
2023-07-21T08:20:29.250Z,81.04
2023-07-21T08:21:28.629Z,81.65
2023-07-21T08:22:28.221Z,81.24
2023-07-21T08:23:30.345Z,80.74
2023-07-21T08:24:29.292Z,80.70
2023-07-21T08:25:28.239Z,80.10
2023-07-21T08:26:28.218Z,79.49
2023-07-21T08:27:28.185Z,79.60
2023-07-21T08:28:28.181Z,79.05
2023-07-21T08:29:28.177Z,79.22
2023-07-21T08:30:28.195Z,77.27
2023-07-21T08:31:28.524Z,77.47
2023-07-21T08:32:28.174Z,77.47
2023-07-21T08:33:28.168Z,77.03
2023-07-21T08:34:28.173Z,75.82
2023-07-21T08:35:28.123Z,75.68
2023-07-21T21:18:39.757Z,97.23
2023-07-21T21:19:39.741Z,96.92
2023-07-21T21:20:39.714Z,96.82
2023-07-21T21:21:40.818Z,96.82
2023-07-21T21:22:40.801Z,96.72
2023-07-21T21:23:40.820Z,96.22
2023-07-21T21:24:40.856Z,96.01
2023-07-21T21:25:40.794Z,96.31
2023-07-21T21:26:40.773Z,96.11
2023-07-21T21:27:40.754Z,96.31
2023-07-21T21:28:40.747Z,96.72
2023-07-21T21:29:40.748Z,96.31
2023-07-21T21:30:40.750Z,96.01
2023-07-21T21:31:40.773Z,95.61
2023-07-21T21:32:40.774Z,95.20
2023-07-21T21:33:40.721Z,95.20
2023-07-21T21:34:40.717Z,95.40
2023-07-21T21:35:40.691Z,95.10
2023-07-21T21:36:40.719Z,94.65
2023-07-21T21:37:40.688Z,94.79
2023-07-21T21:38:40.697Z,95.50
2023-07-21T21:39:40.652Z,94.90
2023-07-21T21:40:40.657Z,94.59
2023-07-21T21:41:40.651Z,95.10
2023-07-21T21:42:40.639Z,94.59
2023-07-21T21:43:40.635Z,94.79
2023-07-21T21:44:40.649Z,94.90
2023-07-21T21:45:40.694Z,94.49
2023-07-21T21:46:42.167Z,94.24
2023-07-21T21:47:40.637Z,94.79
2023-07-21T21:48:40.600Z,94.70
2023-07-21T21:49:40.582Z,94.09
2023-07-21T21:50:40.599Z,93.78
2023-07-21T21:51:41.171Z,93.68
2023-07-21T21:52:40.593Z,93.38
2023-07-21T21:53:40.548Z,93.07
2023-07-21T21:54:40.562Z,93.38
2023-07-21T21:55:40.561Z,93.48
2023-07-21T21:56:40.547Z,93.07
2023-07-21T21:57:41.957Z,93.18
2023-07-21T21:58:40.527Z,92.67
2023-07-21T21:59:40.519Z,93.38
2023-07-21T22:00:40.499Z,92.83
2023-07-21T22:01:40.529Z,92.16
2023-07-21T22:02:40.544Z,91.86
2023-07-21T22:03:40.590Z,91.61
2023-07-21T22:04:40.461Z,91.55
2023-07-21T22:05:40.462Z,92.02
2023-07-21T22:06:40.444Z,91.71
2023-07-21T22:07:40.427Z,91.71
2023-07-21T22:08:40.464Z,92.06
2023-07-21T22:09:40.425Z,91.55
2023-07-21T22:10:40.421Z,91.96
2023-07-21T22:11:43.045Z,91.86
2023-07-21T22:12:43.188Z,91.66
2023-07-21T22:13:40.989Z,91.86
2023-07-21T22:14:50.759Z,92.06
2023-07-21T22:15:42.450Z,92.31
2023-07-21T22:16:41.232Z,92.21
2023-07-21T22:17:40.378Z,91.96
2023-07-21T22:18:40.344Z,92.06
2023-07-21T22:19:40.366Z,92.16
2023-07-21T22:20:40.401Z,92.26
2023-07-21T22:21:41.287Z,92.61
2023-07-21T22:22:40.431Z,93.32
2023-07-21T22:23:40.395Z,92.71
2023-07-21T22:24:40.317Z,93.32
2023-07-21T22:25:40.297Z,92.21
2023-07-21T22:26:40.359Z,92.21
2023-07-21T22:27:41.301Z,92.51
2023-07-21T22:28:41.281Z,92.31
2023-07-21T22:29:41.136Z,92.31
2023-07-21T22:30:40.321Z,92.21
2023-07-21T22:31:40.274Z,91.60
2023-07-21T22:32:40.378Z,91.80
2023-07-21T22:33:40.284Z,91.74
2023-07-21T22:34:40.215Z,92.00
2023-07-21T22:35:40.229Z,92.00
2023-07-21T22:36:40.228Z,91.94
2023-07-21T22:37:40.219Z,91.85
2023-07-21T22:38:40.261Z,91.85
2023-07-21T22:39:40.184Z,91.94
2023-07-21T22:40:40.186Z,91.85
2023-07-21T22:41:41.177Z,92.25
2023-07-21T22:42:40.168Z,93.00
2023-07-21T22:43:40.195Z,93.41
2023-07-21T22:44:42.125Z,93.21
2023-07-21T22:45:40.190Z,94.17
2023-07-21T22:46:40.140Z,94.17
2023-07-21T22:47:40.143Z,95.07
2023-07-21T22:48:40.142Z,95.12
2023-07-21T22:49:40.108Z,94.98
2023-07-21T22:50:40.122Z,95.22
2023-07-21T22:51:40.170Z,95.22
2023-07-21T22:52:41.645Z,95.22
2023-07-21T22:53:40.081Z,95.12
2023-07-21T22:54:40.714Z,95.02
2023-07-21T22:55:40.046Z,95.02
2023-07-21T22:56:40.042Z,95.02
2023-07-21T22:57:40.048Z,95.02
2023-07-21T22:58:40.029Z,95.02
2023-07-21T22:59:40.029Z,94.41
2023-07-21T23:00:40.113Z,95.32
2023-07-21T23:01:40.155Z,94.82
2023-07-21T23:02:40.084Z,94.61
2023-07-21T23:03:40.108Z,95.02
2023-07-21T23:04:40.001Z,95.12
2023-07-21T23:05:40.040Z,94.92
2023-07-21T23:06:40.900Z,95.06
2023-07-21T23:07:41.235Z,95.22
2023-07-21T23:08:39.982Z,94.96
2023-07-21T23:09:40.793Z,95.02
2023-07-21T23:10:39.975Z,94.86
2023-07-21T23:11:40.045Z,94.96
2023-07-21T23:12:40.005Z,94.82
2023-07-21T23:13:39.951Z,95.17
2023-07-21T23:14:41.648Z,95.26
2023-07-21T23:15:40.696Z,95.17
2023-07-21T23:16:39.958Z,94.66
2023-07-21T23:17:41.718Z,95.26
2023-07-21T23:18:39.908Z,95.12
2023-07-21T23:19:39.872Z,95.02
2023-07-21T23:20:39.851Z,95.02
2023-07-21T23:21:39.914Z,94.92
2023-07-21T23:22:39.862Z,95.12
2023-07-21T23:23:39.836Z,95.22
2023-07-21T23:24:41.710Z,95.22
2023-07-21T23:25:41.730Z,95.12
2023-07-21T23:26:40.712Z,94.31
2023-07-21T23:27:39.863Z,94.31
2023-07-21T23:28:39.920Z,94.31
2023-07-21T23:29:39.788Z,93.86
2023-07-21T23:30:39.784Z,94.17
2023-07-21T23:31:39.803Z,93.60
2023-07-21T23:32:39.795Z,93.05
2023-07-21T23:33:39.754Z,92.94
2023-07-21T23:34:39.742Z,93.35
2023-07-21T23:35:39.745Z,93.15
2023-07-21T23:36:39.718Z,93.25
2023-07-21T23:37:39.734Z,93.15
2023-07-21T23:38:39.721Z,93.35
2023-07-21T23:39:40.645Z,93.35
2023-07-21T23:40:39.694Z,93.25
2023-07-21T23:41:39.691Z,93.40
2023-07-21T23:42:39.681Z,93.29
2023-07-21T23:43:39.669Z,93.80
2023-07-21T23:44:39.664Z,93.90
2023-07-21T23:45:39.660Z,95.02
2023-07-21T23:46:39.685Z,94.96
2023-07-21T23:47:39.657Z,95.17
2023-07-21T23:48:41.130Z,94.96
2023-07-21T23:50:47.470Z,95.06
2023-07-21T23:51:47.451Z,95.26
2023-07-21T23:52:47.448Z,95.17
2023-07-21T23:53:47.437Z,95.17
2023-07-21T23:54:47.435Z,95.06
2023-07-21T23:55:47.447Z,95.10
2023-07-21T23:56:48.515Z,95.21
2023-07-21T23:57:48.502Z,95.06
2023-07-21T23:58:48.493Z,95.10
2023-07-21T23:59:48.493Z,95.41
